sensor_id;sensor_type;location;lat;lon;timestamp;P1;durP1;ratioP1;P2;durP2;ratioP2
79135;SDS011;68533;51.090;17.216;2023-09-18T00:00:46;3.85;;;2.10;;
79135;SDS011;68533;51.090;17.216;2023-09-18T00:03:36;2.60;;;2.10;;
79135;SDS011;68533;51.090;17.216;2023-09-18T00:06:02;2.40;;;2.08;;
79135;SDS011;68533;51.090;17.216;2023-09-18T00:08:29;4.15;;;2.42;;
79135;SDS011;68533;51.090;17.216;2023-09-18T00:10:57;4.05;;;2.45;;
79135;SDS011;68533;51.090;17.216;2023-09-18T00:13:23;3.65;;;1.77;;
79135;SDS011;68533;51.090;17.216;2023-09-18T00:15:49;1.80;;;1.50;;
79135;SDS011;68533;51.090;17.216;2023-09-18T00:18:19;3.17;;;2.60;;
79135;SDS011;68533;51.090;17.216;2023-09-18T00:20:45;6.30;;;3.13;;
79135;SDS011;68533;51.090;17.216;2023-09-18T00:23:13;3.17;;;2.08;;
79135;SDS011;68533;51.090;17.216;2023-09-18T00:25:41;4.05;;;2.70;;
79135;SDS011;68533;51.090;17.216;2023-09-18T00:28:07;3.72;;;3.00;;
79135;SDS011;68533;51.090;17.216;2023-09-18T00:30:34;4.47;;;2.83;;
79135;SDS011;68533;51.090;17.216;2023-09-18T00:33:00;5.70;;;2.88;;
79135;SDS011;68533;51.090;17.216;2023-09-18T00:35:26;4.75;;;3.67;;
79135;SDS011;68533;51.090;17.216;2023-09-18T00:37:52;4.57;;;3.13;;
79135;SDS011;68533;51.090;17.216;2023-09-18T00:40:18;5.05;;;3.35;;
79135;SDS011;68533;51.090;17.216;2023-09-18T00:42:44;3.65;;;2.70;;
79135;SDS011;68533;51.090;17.216;2023-09-18T00:45:11;8.23;;;4.25;;
79135;SDS011;68533;51.090;17.216;2023-09-18T00:47:37;6.72;;;3.53;;
79135;SDS011;68533;51.090;17.216;2023-09-18T00:50:04;4.00;;;2.92;;
79135;SDS011;68533;51.090;17.216;2023-09-18T00:52:33;5.65;;;3.42;;
79135;SDS011;68533;51.090;17.216;2023-09-18T00:55:00;5.18;;;2.75;;
79135;SDS011;68533;51.090;17.216;2023-09-18T00:57:26;5.60;;;2.47;;
79135;SDS011;68533;51.090;17.216;2023-09-18T00:59:53;5.65;;;3.13;;
79135;SDS011;68533;51.090;17.216;2023-09-18T01:02:19;6.18;;;3.85;;
79135;SDS011;68533;51.090;17.216;2023-09-18T01:04:47;8.93;;;3.67;;
79135;SDS011;68533;51.090;17.216;2023-09-18T01:07:14;5.72;;;3.20;;
79135;SDS011;68533;51.090;17.216;2023-09-18T01:09:41;3.20;;;2.50;;
79135;SDS011;68533;51.090;17.216;2023-09-18T01:12:11;5.80;;;3.72;;
79135;SDS011;68533;51.090;17.216;2023-09-18T01:14:57;7.18;;;2.80;;
79135;SDS011;68533;51.090;17.216;2023-09-18T01:17:36;6.25;;;3.15;;
79135;SDS011;68533;51.090;17.216;2023-09-18T01:20:09;2.53;;;2.17;;
79135;SDS011;68533;51.090;17.216;2023-09-18T01:22:36;3.83;;;2.40;;
79135;SDS011;68533;51.090;17.216;2023-09-18T01:25:02;3.35;;;2.65;;
79135;SDS011;68533;51.090;17.216;2023-09-18T01:27:28;5.55;;;2.70;;
79135;SDS011;68533;51.090;17.216;2023-09-18T01:29:54;2.75;;;2.22;;
79135;SDS011;68533;51.090;17.216;2023-09-18T01:32:21;4.70;;;3.50;;
79135;SDS011;68533;51.090;17.216;2023-09-18T01:34:54;4.70;;;3.13;;
79135;SDS011;68533;51.090;17.216;2023-09-18T01:37:23;5.43;;;2.88;;
79135;SDS011;68533;51.090;17.216;2023-09-18T01:39:51;6.30;;;4.05;;
79135;SDS011;68533;51.090;17.216;2023-09-18T01:42:23;6.90;;;3.45;;
79135;SDS011;68533;51.090;17.216;2023-09-18T01:44:50;4.75;;;2.53;;
79135;SDS011;68533;51.090;17.216;2023-09-18T01:47:18;5.63;;;3.08;;
79135;SDS011;68533;51.090;17.216;2023-09-18T01:49:45;5.18;;;2.85;;
79135;SDS011;68533;51.090;17.216;2023-09-18T01:52:11;5.13;;;2.90;;
79135;SDS011;68533;51.090;17.216;2023-09-18T01:54:38;4.85;;;3.17;;
79135;SDS011;68533;51.090;17.216;2023-09-18T01:57:04;7.25;;;4.18;;
79135;SDS011;68533;51.090;17.216;2023-09-18T01:59:33;5.15;;;3.35;;
79135;SDS011;68533;51.090;17.216;2023-09-18T02:02:00;6.00;;;3.45;;
79135;SDS011;68533;51.090;17.216;2023-09-18T02:04:29;3.15;;;2.13;;
79135;SDS011;68533;51.090;17.216;2023-09-18T02:06:55;4.95;;;2.58;;
79135;SDS011;68533;51.090;17.216;2023-09-18T02:09:22;5.18;;;2.92;;
79135;SDS011;68533;51.090;17.216;2023-09-18T02:11:48;4.10;;;3.15;;
79135;SDS011;68533;51.090;17.216;2023-09-18T02:14:15;4.07;;;3.15;;
79135;SDS011;68533;51.090;17.216;2023-09-18T02:16:43;5.82;;;3.70;;
79135;SDS011;68533;51.090;17.216;2023-09-18T02:19:12;5.80;;;3.75;;
79135;SDS011;68533;51.090;17.216;2023-09-18T02:21:39;6.53;;;3.28;;
79135;SDS011;68533;51.090;17.216;2023-09-18T02:24:05;6.38;;;3.58;;
79135;SDS011;68533;51.090;17.216;2023-09-18T02:26:32;4.85;;;3.55;;
79135;SDS011;68533;51.090;17.216;2023-09-18T02:28:59;4.47;;;3.42;;
79135;SDS011;68533;51.090;17.216;2023-09-18T02:31:26;6.78;;;2.65;;
79135;SDS011;68533;51.090;17.216;2023-09-18T02:33:53;4.57;;;3.80;;
79135;SDS011;68533;51.090;17.216;2023-09-18T02:36:18;3.72;;;2.42;;
79135;SDS011;68533;51.090;17.216;2023-09-18T02:38:45;6.20;;;3.47;;
79135;SDS011;68533;51.090;17.216;2023-09-18T02:41:11;5.68;;;3.75;;
79135;SDS011;68533;51.090;17.216;2023-09-18T02:43:38;6.22;;;3.17;;
79135;SDS011;68533;51.090;17.216;2023-09-18T02:46:04;4.00;;;3.35;;
79135;SDS011;68533;51.090;17.216;2023-09-18T02:48:31;4.50;;;2.80;;
79135;SDS011;68533;51.090;17.216;2023-09-18T02:50:58;5.78;;;3.78;;
79135;SDS011;68533;51.090;17.216;2023-09-18T02:53:28;5.22;;;3.33;;
79135;SDS011;68533;51.090;17.216;2023-09-18T02:55:55;4.22;;;2.95;;
79135;SDS011;68533;51.090;17.216;2023-09-18T02:58:23;3.28;;;2.47;;
79135;SDS011;68533;51.090;17.216;2023-09-18T03:00:56;4.25;;;2.92;;
79135;SDS011;68533;51.090;17.216;2023-09-18T03:03:24;5.00;;;3.45;;
79135;SDS011;68533;51.090;17.216;2023-09-18T03:05:50;4.03;;;3.08;;
79135;SDS011;68533;51.090;17.216;2023-09-18T03:08:16;3.97;;;3.10;;
79135;SDS011;68533;51.090;17.216;2023-09-18T03:10:43;5.25;;;3.13;;
79135;SDS011;68533;51.090;17.216;2023-09-18T03:13:10;4.72;;;3.25;;
79135;SDS011;68533;51.090;17.216;2023-09-18T03:15:38;4.93;;;3.83;;
79135;SDS011;68533;51.090;17.216;2023-09-18T03:18:05;7.30;;;5.05;;
79135;SDS011;68533;51.090;17.216;2023-09-18T03:20:32;4.82;;;3.38;;
79135;SDS011;68533;51.090;17.216;2023-09-18T03:22:59;5.70;;;3.90;;
79135;SDS011;68533;51.090;17.216;2023-09-18T03:25:27;6.15;;;3.28;;
79135;SDS011;68533;51.090;17.216;2023-09-18T03:27:55;4.45;;;3.38;;
79135;SDS011;68533;51.090;17.216;2023-09-18T03:30:22;6.82;;;3.80;;
79135;SDS011;68533;51.090;17.216;2023-09-18T03:32:49;5.68;;;3.47;;
79135;SDS011;68533;51.090;17.216;2023-09-18T03:35:16;5.07;;;3.08;;
79135;SDS011;68533;51.090;17.216;2023-09-18T03:37:48;5.13;;;3.20;;
79135;SDS011;68533;51.090;17.216;2023-09-18T03:40:17;4.78;;;3.58;;
79135;SDS011;68533;51.090;17.216;2023-09-18T03:42:44;5.63;;;3.40;;
79135;SDS011;68533;51.090;17.216;2023-09-18T03:45:10;6.13;;;3.83;;
79135;SDS011;68533;51.090;17.216;2023-09-18T03:47:38;5.78;;;3.30;;
79135;SDS011;68533;51.090;17.216;2023-09-18T03:50:05;4.90;;;3.22;;
79135;SDS011;68533;51.090;17.216;2023-09-18T03:52:35;5.93;;;3.63;;
79135;SDS011;68533;51.090;17.216;2023-09-18T03:55:02;6.57;;;4.85;;
79135;SDS011;68533;51.090;17.216;2023-09-18T03:57:28;4.75;;;4.28;;
79135;SDS011;68533;51.090;17.216;2023-09-18T03:59:54;6.82;;;4.55;;
79135;SDS011;68533;51.090;17.216;2023-09-18T04:02:21;4.18;;;3.13;;
79135;SDS011;68533;51.090;17.216;2023-09-18T04:04:49;11.88;;;4.03;;
79135;SDS011;68533;51.090;17.216;2023-09-18T04:07:16;5.00;;;3.55;;
79135;SDS011;68533;51.090;17.216;2023-09-18T04:09:42;7.10;;;4.40;;
79135;SDS011;68533;51.090;17.216;2023-09-18T04:12:08;6.28;;;3.85;;
79135;SDS011;68533;51.090;17.216;2023-09-18T04:14:35;5.03;;;3.17;;
79135;SDS011;68533;51.090;17.216;2023-09-18T04:17:01;6.38;;;3.22;;
79135;SDS011;68533;51.090;17.216;2023-09-18T04:19:28;6.38;;;3.97;;
79135;SDS011;68533;51.090;17.216;2023-09-18T04:21:56;5.18;;;3.35;;
79135;SDS011;68533;51.090;17.216;2023-09-18T04:24:22;5.82;;;3.80;;
79135;SDS011;68533;51.090;17.216;2023-09-18T04:26:49;5.68;;;3.75;;
79135;SDS011;68533;51.090;17.216;2023-09-18T04:29:21;4.88;;;3.50;;
79135;SDS011;68533;51.090;17.216;2023-09-18T04:31:50;4.40;;;3.38;;
79135;SDS011;68533;51.090;17.216;2023-09-18T04:34:16;5.50;;;3.72;;
79135;SDS011;68533;51.090;17.216;2023-09-18T04:36:43;4.55;;;2.80;;
79135;SDS011;68533;51.090;17.216;2023-09-18T04:39:11;5.22;;;3.78;;
79135;SDS011;68533;51.090;17.216;2023-09-18T04:41:37;6.72;;;3.47;;
79135;SDS011;68533;51.090;17.216;2023-09-18T04:44:03;6.38;;;3.30;;
79135;SDS011;68533;51.090;17.216;2023-09-18T04:46:30;3.67;;;2.65;;
79135;SDS011;68533;51.090;17.216;2023-09-18T04:48:57;6.88;;;3.60;;
79135;SDS011;68533;51.090;17.216;2023-09-18T04:51:23;7.53;;;3.35;;
79135;SDS011;68533;51.090;17.216;2023-09-18T04:53:49;5.10;;;3.55;;
79135;SDS011;68533;51.090;17.216;2023-09-18T04:56:17;8.30;;;4.03;;
79135;SDS011;68533;51.090;17.216;2023-09-18T04:58:45;5.18;;;3.58;;
79135;SDS011;68533;51.090;17.216;2023-09-18T05:01:11;6.00;;;4.57;;
79135;SDS011;68533;51.090;17.216;2023-09-18T05:03:38;4.20;;;3.08;;
79135;SDS011;68533;51.090;17.216;2023-09-18T05:06:03;8.57;;;3.28;;
79135;SDS011;68533;51.090;17.216;2023-09-18T05:08:30;6.07;;;3.05;;
79135;SDS011;68533;51.090;17.216;2023-09-18T05:10:56;4.88;;;3.03;;
79135;SDS011;68533;51.090;17.216;2023-09-18T05:13:23;5.60;;;4.05;;
79135;SDS011;68533;51.090;17.216;2023-09-18T05:15:49;5.22;;;2.80;;
79135;SDS011;68533;51.090;17.216;2023-09-18T05:18:16;5.13;;;3.35;;
79135;SDS011;68533;51.090;17.216;2023-09-18T05:20:42;6.65;;;4.30;;
79135;SDS011;68533;51.090;17.216;2023-09-18T05:23:08;6.53;;;3.20;;
79135;SDS011;68533;51.090;17.216;2023-09-18T05:25:34;8.30;;;6.03;;
79135;SDS011;68533;51.090;17.216;2023-09-18T05:28:04;5.82;;;3.38;;
79135;SDS011;68533;51.090;17.216;2023-09-18T05:30:35;5.13;;;4.00;;
79135;SDS011;68533;51.090;17.216;2023-09-18T05:33:05;6.25;;;3.08;;
79135;SDS011;68533;51.090;17.216;2023-09-18T05:35:36;6.07;;;3.45;;
79135;SDS011;68533;51.090;17.216;2023-09-18T05:38:05;14.63;;;4.25;;
79135;SDS011;68533;51.090;17.216;2023-09-18T05:40:32;8.57;;;4.57;;
79135;SDS011;68533;51.090;17.216;2023-09-18T05:42:58;5.03;;;3.55;;
79135;SDS011;68533;51.090;17.216;2023-09-18T05:45:24;5.35;;;4.22;;
79135;SDS011;68533;51.090;17.216;2023-09-18T05:47:52;5.82;;;4.82;;
79135;SDS011;68533;51.090;17.216;2023-09-18T05:50:31;6.25;;;3.83;;
79135;SDS011;68533;51.090;17.216;2023-09-18T05:52:59;5.35;;;3.15;;
79135;SDS011;68533;51.090;17.216;2023-09-18T05:55:26;4.93;;;2.92;;
79135;SDS011;68533;51.090;17.216;2023-09-18T05:57:53;7.28;;;4.25;;
79135;SDS011;68533;51.090;17.216;2023-09-18T06:00:22;7.57;;;3.67;;
79135;SDS011;68533;51.090;17.216;2023-09-18T06:02:56;4.47;;;3.28;;
79135;SDS011;68533;51.090;17.216;2023-09-18T06:05:25;5.70;;;3.92;;
79135;SDS011;68533;51.090;17.216;2023-09-18T06:07:52;5.40;;;4.03;;
79135;SDS011;68533;51.090;17.216;2023-09-18T06:10:18;4.88;;;3.22;;
79135;SDS011;68533;51.090;17.216;2023-09-18T06:12:45;4.28;;;2.90;;
79135;SDS011;68533;51.090;17.216;2023-09-18T06:15:11;5.90;;;3.95;;
79135;SDS011;68533;51.090;17.216;2023-09-18T06:17:41;4.13;;;3.22;;
79135;SDS011;68533;51.090;17.216;2023-09-18T06:20:09;3.17;;;2.55;;
79135;SDS011;68533;51.090;17.216;2023-09-18T06:22:38;5.80;;;3.80;;
79135;SDS011;68533;51.090;17.216;2023-09-18T06:25:08;5.30;;;3.40;;
79135;SDS011;68533;51.090;17.216;2023-09-18T06:27:38;5.22;;;3.47;;
79135;SDS011;68533;51.090;17.216;2023-09-18T06:30:07;4.65;;;3.50;;
79135;SDS011;68533;51.090;17.216;2023-09-18T06:32:34;3.63;;;3.15;;
79135;SDS011;68533;51.090;17.216;2023-09-18T06:35:00;4.95;;;3.30;;
79135;SDS011;68533;51.090;17.216;2023-09-18T06:37:26;6.00;;;3.88;;
79135;SDS011;68533;51.090;17.216;2023-09-18T06:39:52;5.85;;;4.05;;
79135;SDS011;68533;51.090;17.216;2023-09-18T06:42:19;5.32;;;3.33;;
79135;SDS011;68533;51.090;17.216;2023-09-18T06:44:46;4.40;;;3.10;;
79135;SDS011;68533;51.090;17.216;2023-09-18T06:47:14;5.97;;;4.03;;
79135;SDS011;68533;51.090;17.216;2023-09-18T06:49:41;4.95;;;3.55;;
79135;SDS011;68533;51.090;17.216;2023-09-18T06:52:08;6.28;;;4.35;;
79135;SDS011;68533;51.090;17.216;2023-09-18T06:54:35;8.27;;;3.80;;
79135;SDS011;68533;51.090;17.216;2023-09-18T06:57:04;4.57;;;3.15;;
79135;SDS011;68533;51.090;17.216;2023-09-18T06:59:30;3.58;;;3.03;;
79135;SDS011;68533;51.090;17.216;2023-09-18T07:01:56;4.68;;;3.30;;
79135;SDS011;68533;51.090;17.216;2023-09-18T07:04:22;5.47;;;3.38;;
79135;SDS011;68533;51.090;17.216;2023-09-18T07:06:48;5.03;;;2.63;;
79135;SDS011;68533;51.090;17.216;2023-09-18T07:09:14;7.38;;;4.15;;
79135;SDS011;68533;51.090;17.216;2023-09-18T07:11:40;6.03;;;3.88;;
79135;SDS011;68533;51.090;17.216;2023-09-18T07:14:08;6.20;;;3.85;;
79135;SDS011;68533;51.090;17.216;2023-09-18T07:16:35;4.63;;;3.15;;
79135;SDS011;68533;51.090;17.216;2023-09-18T07:19:01;5.18;;;3.53;;
79135;SDS011;68533;51.090;17.216;2023-09-18T07:21:30;6.93;;;4.10;;
79135;SDS011;68533;51.090;17.216;2023-09-18T07:23:57;5.97;;;3.67;;
79135;SDS011;68533;51.090;17.216;2023-09-18T07:26:26;6.40;;;3.25;;
79135;SDS011;68533;51.090;17.216;2023-09-18T07:28:52;4.95;;;3.33;;
79135;SDS011;68533;51.090;17.216;2023-09-18T07:31:18;4.35;;;3.45;;
79135;SDS011;68533;51.090;17.216;2023-09-18T07:33:44;7.93;;;3.45;;
79135;SDS011;68533;51.090;17.216;2023-09-18T07:36:11;5.10;;;3.67;;
79135;SDS011;68533;51.090;17.216;2023-09-18T07:38:36;5.10;;;3.08;;
79135;SDS011;68533;51.090;17.216;2023-09-18T07:41:09;7.50;;;3.65;;
79135;SDS011;68533;51.090;17.216;2023-09-18T07:43:35;6.25;;;3.55;;
79135;SDS011;68533;51.090;17.216;2023-09-18T07:46:01;5.20;;;3.58;;
79135;SDS011;68533;51.090;17.216;2023-09-18T07:48:27;4.60;;;2.95;;
79135;SDS011;68533;51.090;17.216;2023-09-18T07:50:53;4.13;;;3.10;;
79135;SDS011;68533;51.090;17.216;2023-09-18T07:53:22;7.57;;;2.80;;
79135;SDS011;68533;51.090;17.216;2023-09-18T07:55:54;5.07;;;3.42;;
79135;SDS011;68533;51.090;17.216;2023-09-18T07:58:22;5.45;;;3.42;;
79135;SDS011;68533;51.090;17.216;2023-09-18T08:00:50;4.75;;;2.83;;
79135;SDS011;68533;51.090;17.216;2023-09-18T08:03:39;4.97;;;3.53;;
79135;SDS011;68533;51.090;17.216;2023-09-18T08:06:10;5.53;;;3.28;;
79135;SDS011;68533;51.090;17.216;2023-09-18T08:08:40;6.93;;;3.63;;
79135;SDS011;68533;51.090;17.216;2023-09-18T08:11:07;5.65;;;4.30;;
79135;SDS011;68533;51.090;17.216;2023-09-18T08:13:37;5.55;;;3.13;;
79135;SDS011;68533;51.090;17.216;2023-09-18T08:16:05;10.48;;;4.47;;
79135;SDS011;68533;51.090;17.216;2023-09-18T08:18:32;4.32;;;2.75;;
79135;SDS011;68533;51.090;17.216;2023-09-18T08:20:58;5.18;;;3.47;;
79135;SDS011;68533;51.090;17.216;2023-09-18T08:23:25;5.32;;;3.47;;
79135;SDS011;68533;51.090;17.216;2023-09-18T08:25:52;7.63;;;4.25;;
79135;SDS011;68533;51.090;17.216;2023-09-18T08:28:21;7.40;;;3.15;;
79135;SDS011;68533;51.090;17.216;2023-09-18T08:30:48;5.03;;;3.33;;
79135;SDS011;68533;51.090;17.216;2023-09-18T08:33:14;6.68;;;3.72;;
79135;SDS011;68533;51.090;17.216;2023-09-18T08:35:40;7.65;;;3.63;;
79135;SDS011;68533;51.090;17.216;2023-09-18T08:38:06;5.90;;;3.90;;
79135;SDS011;68533;51.090;17.216;2023-09-18T08:43:12;6.90;;;3.75;;
79135;SDS011;68533;51.090;17.216;2023-09-18T08:45:49;6.80;;;3.88;;
79135;SDS011;68533;51.090;17.216;2023-09-18T08:48:27;4.25;;;3.80;;
79135;SDS011;68533;51.090;17.216;2023-09-18T08:51:01;5.63;;;4.43;;
79135;SDS011;68533;51.090;17.216;2023-09-18T08:53:32;7.07;;;4.13;;
79135;SDS011;68533;51.090;17.216;2023-09-18T08:56:01;6.03;;;3.45;;
79135;SDS011;68533;51.090;17.216;2023-09-18T08:58:32;6.10;;;3.28;;
79135;SDS011;68533;51.090;17.216;2023-09-18T09:01:06;6.70;;;3.75;;
79135;SDS011;68533;51.090;17.216;2023-09-18T09:03:38;7.68;;;3.30;;
79135;SDS011;68533;51.090;17.216;2023-09-18T09:06:09;5.57;;;3.88;;
79135;SDS011;68533;51.090;17.216;2023-09-18T09:08:37;5.03;;;3.55;;
79135;SDS011;68533;51.090;17.216;2023-09-18T09:11:05;5.80;;;3.28;;
79135;SDS011;68533;51.090;17.216;2023-09-18T09:13:34;4.72;;;4.22;;
79135;SDS011;68533;51.090;17.216;2023-09-18T09:16:02;6.22;;;4.28;;
79135;SDS011;68533;51.090;17.216;2023-09-18T09:18:29;6.90;;;3.67;;
79135;SDS011;68533;51.090;17.216;2023-09-18T09:21:01;8.15;;;4.32;;
79135;SDS011;68533;51.090;17.216;2023-09-18T09:26:22;6.18;;;3.25;;
79135;SDS011;68533;51.090;17.216;2023-09-18T09:28:48;5.43;;;4.20;;
79135;SDS011;68533;51.090;17.216;2023-09-18T09:31:27;5.85;;;3.38;;
79135;SDS011;68533;51.090;17.216;2023-09-18T09:33:54;6.57;;;3.45;;
79135;SDS011;68533;51.090;17.216;2023-09-18T09:36:26;5.32;;;3.33;;
79135;SDS011;68533;51.090;17.216;2023-09-18T09:38:58;4.47;;;3.50;;
79135;SDS011;68533;51.090;17.216;2023-09-18T09:41:25;5.13;;;4.22;;
79135;SDS011;68533;51.090;17.216;2023-09-18T09:43:55;8.68;;;4.00;;
79135;SDS011;68533;51.090;17.216;2023-09-18T09:46:23;7.95;;;4.10;;
79135;SDS011;68533;51.090;17.216;2023-09-18T09:48:59;6.90;;;4.05;;
79135;SDS011;68533;51.090;17.216;2023-09-18T09:51:35;7.40;;;4.13;;
79135;SDS011;68533;51.090;17.216;2023-09-18T09:54:03;4.35;;;3.30;;
79135;SDS011;68533;51.090;17.216;2023-09-18T09:56:45;4.82;;;3.97;;
79135;SDS011;68533;51.090;17.216;2023-09-18T09:59:19;6.28;;;3.25;;
79135;SDS011;68533;51.090;17.216;2023-09-18T10:01:46;5.60;;;3.95;;
79135;SDS011;68533;51.090;17.216;2023-09-18T10:04:16;7.70;;;3.83;;
79135;SDS011;68533;51.090;17.216;2023-09-18T10:06:44;5.38;;;3.80;;
79135;SDS011;68533;51.090;17.216;2023-09-18T10:09:19;5.20;;;3.65;;
79135;SDS011;68533;51.090;17.216;2023-09-18T10:12:00;6.78;;;3.55;;
79135;SDS011;68533;51.090;17.216;2023-09-18T10:14:30;7.18;;;4.45;;
79135;SDS011;68533;51.090;17.216;2023-09-18T10:17:02;5.78;;;4.28;;
79135;SDS011;68533;51.090;17.216;2023-09-18T10:22:45;4.82;;;3.72;;
79135;SDS011;68533;51.090;17.216;2023-09-18T10:25:17;4.35;;;2.88;;
79135;SDS011;68533;51.090;17.216;2023-09-18T10:27:53;6.60;;;3.65;;
79135;SDS011;68533;51.090;17.216;2023-09-18T10:30:31;5.40;;;3.80;;
79135;SDS011;68533;51.090;17.216;2023-09-18T10:33:12;5.05;;;3.38;;
79135;SDS011;68533;51.090;17.216;2023-09-18T10:35:40;4.80;;;3.08;;
79135;SDS011;68533;51.090;17.216;2023-09-18T10:38:10;5.80;;;4.13;;
79135;SDS011;68533;51.090;17.216;2023-09-18T10:40:38;7.07;;;3.92;;
79135;SDS011;68533;51.090;17.216;2023-09-18T10:43:08;4.68;;;3.08;;
79135;SDS011;68533;51.090;17.216;2023-09-18T10:45:37;5.07;;;3.47;;
79135;SDS011;68533;51.090;17.216;2023-09-18T10:48:08;4.97;;;4.15;;
79135;SDS011;68533;51.090;17.216;2023-09-18T10:50:35;5.47;;;3.25;;
79135;SDS011;68533;51.090;17.216;2023-09-18T10:53:04;6.70;;;4.15;;
79135;SDS011;68533;51.090;17.216;2023-09-18T10:55:30;6.03;;;3.80;;
79135;SDS011;68533;51.090;17.216;2023-09-18T10:58:22;5.40;;;3.83;;
79135;SDS011;68533;51.090;17.216;2023-09-18T11:00:53;5.57;;;3.75;;
79135;SDS011;68533;51.090;17.216;2023-09-18T11:03:26;5.35;;;3.65;;
79135;SDS011;68533;51.090;17.216;2023-09-18T11:06:05;6.13;;;3.60;;
79135;SDS011;68533;51.090;17.216;2023-09-18T11:09:00;6.88;;;4.70;;
79135;SDS011;68533;51.090;17.216;2023-09-18T11:11:30;5.45;;;3.42;;
79135;SDS011;68533;51.090;17.216;2023-09-18T11:14:04;5.05;;;3.90;;
79135;SDS011;68533;51.090;17.216;2023-09-18T11:16:37;5.57;;;3.83;;
79135;SDS011;68533;51.090;17.216;2023-09-18T11:19:27;3.88;;;3.05;;
79135;SDS011;68533;51.090;17.216;2023-09-18T11:22:06;5.40;;;3.75;;
79135;SDS011;68533;51.090;17.216;2023-09-18T11:24:33;6.47;;;3.72;;
79135;SDS011;68533;51.090;17.216;2023-09-18T11:27:05;8.07;;;4.10;;
79135;SDS011;68533;51.090;17.216;2023-09-18T11:29:34;5.38;;;3.92;;
79135;SDS011;68533;51.090;17.216;2023-09-18T11:32:06;6.22;;;3.20;;
79135;SDS011;68533;51.090;17.216;2023-09-18T11:34:36;5.55;;;3.40;;
79135;SDS011;68533;51.090;17.216;2023-09-18T11:37:20;5.78;;;4.13;;
79135;SDS011;68533;51.090;17.216;2023-09-18T11:39:55;8.98;;;4.10;;
79135;SDS011;68533;51.090;17.216;2023-09-18T11:43:18;4.05;;;2.95;;
79135;SDS011;68533;51.090;17.216;2023-09-18T11:45:59;4.32;;;2.95;;
79135;SDS011;68533;51.090;17.216;2023-09-18T11:48:29;3.40;;;2.50;;
79135;SDS011;68533;51.090;17.216;2023-09-18T11:51:01;3.05;;;2.28;;
79135;SDS011;68533;51.090;17.216;2023-09-18T11:53:33;2.42;;;1.88;;
79135;SDS011;68533;51.090;17.216;2023-09-18T11:56:11;3.13;;;1.98;;
79135;SDS011;68533;51.090;17.216;2023-09-18T11:58:50;6.82;;;2.50;;
79135;SDS011;68533;51.090;17.216;2023-09-18T12:01:18;3.63;;;2.00;;
79135;SDS011;68533;51.090;17.216;2023-09-18T12:03:44;3.15;;;2.00;;
79135;SDS011;68533;51.090;17.216;2023-09-18T12:06:12;3.75;;;1.75;;
79135;SDS011;68533;51.090;17.216;2023-09-18T12:08:48;2.35;;;1.92;;
79135;SDS011;68533;51.090;17.216;2023-09-18T12:11:41;2.88;;;2.25;;
79135;SDS011;68533;51.090;17.216;2023-09-18T12:14:10;5.43;;;2.40;;
79135;SDS011;68533;51.090;17.216;2023-09-18T12:16:39;3.58;;;1.70;;
79135;SDS011;68533;51.090;17.216;2023-09-18T12:19:05;2.63;;;1.70;;
79135;SDS011;68533;51.090;17.216;2023-09-18T12:21:41;3.30;;;2.00;;
79135;SDS011;68533;51.090;17.216;2023-09-18T12:24:14;1.85;;;1.67;;
79135;SDS011;68533;51.090;17.216;2023-09-18T12:26:46;3.25;;;1.50;;
79135;SDS011;68533;51.090;17.216;2023-09-18T12:29:12;2.42;;;1.70;;
79135;SDS011;68533;51.090;17.216;2023-09-18T12:31:39;4.40;;;2.25;;
79135;SDS011;68533;51.090;17.216;2023-09-18T12:37:02;3.95;;;2.10;;
79135;SDS011;68533;51.090;17.216;2023-09-18T12:39:51;2.47;;;1.90;;
79135;SDS011;68533;51.090;17.216;2023-09-18T12:42:20;3.55;;;1.83;;
79135;SDS011;68533;51.090;17.216;2023-09-18T12:44:49;3.80;;;2.20;;
79135;SDS011;68533;51.090;17.216;2023-09-18T12:47:21;3.08;;;1.98;;
79135;SDS011;68533;51.090;17.216;2023-09-18T12:50:01;3.42;;;2.15;;
79135;SDS011;68533;51.090;17.216;2023-09-18T12:52:30;3.35;;;1.92;;
79135;SDS011;68533;51.090;17.216;2023-09-18T12:54:57;3.55;;;2.35;;
79135;SDS011;68533;51.090;17.216;2023-09-18T12:57:26;4.43;;;1.70;;
79135;SDS011;68533;51.090;17.216;2023-09-18T12:59:52;5.25;;;1.70;;
79135;SDS011;68533;51.090;17.216;2023-09-18T13:02:27;4.30;;;2.25;;
79135;SDS011;68533;51.090;17.216;2023-09-18T13:04:54;4.07;;;1.90;;
79135;SDS011;68533;51.090;17.216;2023-09-18T13:07:31;2.67;;;2.17;;
79135;SDS011;68533;51.090;17.216;2023-09-18T13:10:10;3.42;;;1.67;;
79135;SDS011;68533;51.090;17.216;2023-09-18T13:12:49;2.83;;;2.10;;
79135;SDS011;68533;51.090;17.216;2023-09-18T13:15:25;8.32;;;2.58;;
79135;SDS011;68533;51.090;17.216;2023-09-18T13:17:53;2.80;;;1.98;;
79135;SDS011;68533;51.090;17.216;2023-09-18T13:20:21;4.65;;;2.58;;
79135;SDS011;68533;51.090;17.216;2023-09-18T13:22:53;3.65;;;2.05;;
79135;SDS011;68533;51.090;17.216;2023-09-18T13:25:28;1.55;;;1.35;;
79135;SDS011;68533;51.090;17.216;2023-09-18T13:27:56;3.53;;;2.17;;
79135;SDS011;68533;51.090;17.216;2023-09-18T13:30:22;2.45;;;1.88;;
79135;SDS011;68533;51.090;17.216;2023-09-18T13:32:51;3.33;;;2.15;;
79135;SDS011;68533;51.090;17.216;2023-09-18T13:35:30;2.35;;;2.00;;
79135;SDS011;68533;51.090;17.216;2023-09-18T13:37:57;4.00;;;1.83;;
79135;SDS011;68533;51.090;17.216;2023-09-18T13:40:25;3.67;;;1.85;;
79135;SDS011;68533;51.090;17.216;2023-09-18T13:42:53;3.17;;;2.40;;
79135;SDS011;68533;51.090;17.216;2023-09-18T13:45:19;2.28;;;1.30;;
79135;SDS011;68533;51.090;17.216;2023-09-18T13:47:49;5.07;;;1.67;;
79135;SDS011;68533;51.090;17.216;2023-09-18T13:50:17;2.65;;;2.13;;
79135;SDS011;68533;51.090;17.216;2023-09-18T13:52:43;2.95;;;1.67;;
79135;SDS011;68533;51.090;17.216;2023-09-18T13:55:09;2.55;;;1.80;;
79135;SDS011;68533;51.090;17.216;2023-09-18T13:57:38;2.72;;;1.67;;
79135;SDS011;68533;51.090;17.216;2023-09-18T14:00:07;3.92;;;2.50;;
79135;SDS011;68533;51.090;17.216;2023-09-18T14:02:46;5.07;;;1.42;;
79135;SDS011;68533;51.090;17.216;2023-09-18T14:05:15;3.53;;;1.90;;
79135;SDS011;68533;51.090;17.216;2023-09-18T14:07:42;2.45;;;1.65;;
79135;SDS011;68533;51.090;17.216;2023-09-18T14:10:09;2.50;;;2.10;;
79135;SDS011;68533;51.090;17.216;2023-09-18T14:12:39;4.45;;;2.17;;
79135;SDS011;68533;51.090;17.216;2023-09-18T14:15:07;2.65;;;1.67;;
79135;SDS011;68533;51.090;17.216;2023-09-18T14:17:38;4.80;;;2.53;;
79135;SDS011;68533;51.090;17.216;2023-09-18T14:20:07;6.82;;;2.97;;
79135;SDS011;68533;51.090;17.216;2023-09-18T14:22:36;3.63;;;2.28;;
79135;SDS011;68533;51.090;17.216;2023-09-18T14:25:11;2.40;;;1.67;;
79135;SDS011;68533;51.090;17.216;2023-09-18T14:27:39;3.28;;;2.40;;
79135;SDS011;68533;51.090;17.216;2023-09-18T14:30:05;3.88;;;2.63;;
79135;SDS011;68533;51.090;17.216;2023-09-18T14:32:34;2.42;;;1.83;;
79135;SDS011;68533;51.090;17.216;2023-09-18T14:35:07;3.17;;;2.17;;
79135;SDS011;68533;51.090;17.216;2023-09-18T14:37:35;3.40;;;2.28;;
79135;SDS011;68533;51.090;17.216;2023-09-18T14:40:03;4.55;;;2.10;;
79135;SDS011;68533;51.090;17.216;2023-09-18T14:42:53;4.20;;;2.65;;
79135;SDS011;68533;51.090;17.216;2023-09-18T14:45:19;3.55;;;2.85;;
79135;SDS011;68533;51.090;17.216;2023-09-18T14:47:46;3.55;;;2.70;;
79135;SDS011;68533;51.090;17.216;2023-09-18T14:50:16;3.63;;;2.53;;
79135;SDS011;68533;51.090;17.216;2023-09-18T14:52:42;7.88;;;3.15;;
79135;SDS011;68533;51.090;17.216;2023-09-18T14:55:08;3.58;;;2.75;;
79135;SDS011;68533;51.090;17.216;2023-09-18T14:57:34;4.93;;;3.35;;